createdAt,value
2023-04-16T00:01:37.407Z,7.30
2023-04-16T00:04:09.976Z,6.30
2023-04-16T00:06:42.637Z,5.20
2023-04-16T00:09:14.854Z,5.40
2023-04-16T00:11:47.298Z,5.90
2023-04-16T00:14:19.538Z,7.30
2023-04-16T00:16:51.981Z,21.90
2023-04-16T00:19:24.587Z,8.30
2023-04-16T00:21:56.789Z,5.90
2023-04-16T00:24:29.154Z,11.80
2023-04-16T00:27:01.719Z,8.10
2023-04-16T00:29:36.028Z,23.00
2023-04-16T00:32:09.015Z,9.00
2023-04-16T00:34:41.364Z,9.20
2023-04-16T00:37:13.650Z,5.40
2023-04-16T00:39:45.826Z,6.90
2023-04-16T00:42:18.167Z,6.80
2023-04-16T00:44:51.541Z,5.40
2023-04-16T00:47:24.798Z,7.00
2023-04-16T00:49:58.150Z,5.70
2023-04-16T00:52:32.721Z,5.60
2023-04-16T00:55:05.874Z,5.60
2023-04-16T00:57:38.302Z,5.30
2023-04-16T01:00:12.565Z,5.10
2023-04-16T01:02:45.263Z,6.50
2023-04-16T01:05:18.959Z,5.10
2023-04-16T01:07:53.342Z,5.50
2023-04-16T01:10:25.649Z,5.60
2023-04-16T01:12:57.929Z,8.20
2023-04-16T01:15:30.654Z,6.80
2023-04-16T01:18:03.961Z,7.70
2023-04-16T01:20:39.098Z,5.10
2023-04-16T01:23:11.649Z,5.00
2023-04-16T01:25:44.146Z,4.70
2023-04-16T01:28:16.707Z,8.70
2023-04-16T01:30:49.248Z,6.30
2023-04-16T01:33:44.418Z,4.90
2023-04-16T01:36:18.376Z,4.60
2023-04-16T01:38:51.629Z,6.80
2023-04-16T01:41:24.926Z,6.30
2023-04-16T01:43:57.180Z,5.00
2023-04-16T01:46:31.956Z,7.70
2023-04-16T01:49:05.686Z,8.60
2023-04-16T01:51:38.055Z,8.10
2023-04-16T01:54:10.417Z,8.30
2023-04-16T01:56:42.720Z,8.40
2023-04-16T01:59:15.081Z,5.90
2023-04-16T02:01:47.606Z,5.70
2023-04-16T02:04:20.012Z,4.90
2023-04-16T02:06:52.338Z,5.70
2023-04-16T02:09:24.949Z,5.20
2023-04-16T02:11:57.413Z,4.70
2023-04-16T02:14:29.823Z,4.40
2023-04-16T02:17:02.323Z,4.60
2023-04-16T02:19:43.483Z,5.80
2023-04-16T02:22:15.957Z,4.80
2023-04-16T02:24:48.295Z,4.30
2023-04-16T02:27:20.645Z,4.30
2023-04-16T02:29:54.362Z,4.30
2023-04-16T02:32:27.047Z,4.20
2023-04-16T02:34:59.449Z,4.00
2023-04-16T02:37:31.732Z,5.20
2023-04-16T02:40:04.202Z,3.70
2023-04-16T02:42:36.539Z,4.00
2023-04-16T02:45:13.939Z,4.60
2023-04-16T02:47:46.301Z,4.80
2023-04-16T02:50:19.216Z,4.50
2023-04-16T02:52:51.683Z,5.20
2023-04-16T02:55:24.245Z,5.90
2023-04-16T02:57:56.547Z,4.40
2023-04-16T03:00:28.960Z,3.50
2023-04-16T03:03:01.389Z,5.00
2023-04-16T03:05:33.810Z,5.00
2023-04-16T03:08:06.340Z,3.90
2023-04-16T03:10:41.385Z,4.60
2023-04-16T03:13:14.422Z,3.90
2023-04-16T03:15:51.390Z,7.00
2023-04-16T03:18:23.734Z,7.90
2023-04-16T03:20:56.789Z,4.10
2023-04-16T03:23:29.418Z,4.80
2023-04-16T03:26:01.768Z,5.10
2023-04-16T03:28:34.623Z,6.20
2023-04-16T03:31:07.523Z,6.50
2023-04-16T03:33:40.641Z,6.70
2023-04-16T03:36:13.094Z,5.30
2023-04-16T03:38:46.344Z,4.60
2023-04-16T03:41:19.661Z,4.20
2023-04-16T03:43:52.320Z,4.60
2023-04-16T03:46:24.723Z,5.60
2023-04-16T03:48:58.236Z,3.80
2023-04-16T03:51:31.052Z,5.30
2023-04-16T03:54:03.448Z,5.20
2023-04-16T03:56:35.852Z,6.00
2023-04-16T03:59:08.766Z,7.00
2023-04-16T04:01:41.399Z,7.80
2023-04-16T04:04:14.026Z,6.90
2023-04-16T04:06:47.938Z,6.30
2023-04-16T04:09:20.486Z,5.90
2023-04-16T04:11:53.081Z,5.80
2023-04-16T04:14:25.705Z,4.80
2023-04-16T04:16:57.987Z,3.90
2023-04-16T04:19:30.300Z,4.40
2023-04-16T04:22:03.450Z,5.10
2023-04-16T04:24:35.942Z,9.60
2023-04-16T04:27:08.569Z,5.30
2023-04-16T04:29:40.788Z,9.20
2023-04-16T04:32:13.170Z,7.10
2023-04-16T04:34:45.718Z,4.60
2023-04-16T04:37:18.254Z,5.80
2023-04-16T04:39:50.817Z,5.20
2023-04-16T04:42:23.949Z,12.40
2023-04-16T04:44:56.625Z,5.60
2023-04-16T04:47:29.718Z,6.90
2023-04-16T04:50:02.014Z,10.00
2023-04-16T04:52:35.993Z,8.70
2023-04-16T04:55:11.377Z,5.90
2023-04-16T04:57:44.041Z,6.80
2023-04-16T05:00:16.853Z,4.90
2023-04-16T05:02:55.131Z,4.20
2023-04-16T05:05:27.705Z,5.50
2023-04-16T05:08:00.240Z,4.30
2023-04-16T05:10:32.559Z,4.40
2023-04-16T05:13:04.991Z,4.80
2023-04-16T05:15:37.294Z,6.70
2023-04-16T05:18:09.649Z,5.30
2023-04-16T05:20:41.999Z,6.60
2023-04-16T05:23:15.698Z,8.40
2023-04-16T05:25:48.030Z,5.90
2023-04-16T05:28:20.282Z,6.20
2023-04-16T05:30:52.762Z,4.50
2023-04-16T05:33:25.217Z,6.00
2023-04-16T05:35:57.451Z,5.10
2023-04-16T05:38:29.767Z,4.70
2023-04-16T05:41:02.183Z,6.40
2023-04-16T05:43:34.492Z,5.30
2023-04-16T05:46:06.975Z,12.30
2023-04-16T05:48:39.335Z,12.80
2023-04-16T05:51:11.876Z,15.30
2023-04-16T05:53:44.287Z,9.40
2023-04-16T05:56:16.511Z,13.70
2023-04-16T05:58:48.789Z,9.40
2023-04-16T06:01:21.116Z,14.50
2023-04-16T06:03:53.535Z,9.90
2023-04-16T06:06:27.495Z,8.90
2023-04-16T06:08:59.847Z,5.90
2023-04-16T06:11:33.243Z,4.30
2023-04-16T06:14:06.342Z,5.90
2023-04-16T06:16:38.560Z,7.50
2023-04-16T06:19:11.086Z,7.80
2023-04-16T06:21:43.668Z,7.20
2023-04-16T06:24:15.967Z,13.80
2023-04-16T06:26:48.314Z,10.50
2023-04-16T06:29:22.525Z,10.40
2023-04-16T06:31:58.249Z,8.60
2023-04-16T06:34:31.239Z,12.10
2023-04-16T06:37:03.696Z,8.10
2023-04-16T06:39:36.090Z,10.20
2023-04-16T06:42:08.524Z,6.40
2023-04-16T06:44:40.939Z,7.40
2023-04-16T06:47:13.389Z,8.70
2023-04-16T06:49:45.901Z,6.70
2023-04-16T06:52:18.301Z,12.60
2023-04-16T06:54:50.715Z,9.00
2023-04-16T06:57:23.044Z,7.10
2023-04-16T06:59:55.475Z,8.00
2023-04-16T07:02:28.140Z,5.80
2023-04-16T07:05:00.672Z,6.80
2023-04-16T07:07:33.388Z,6.90
2023-04-16T07:10:06.634Z,6.70
2023-04-16T07:12:39.221Z,5.40
2023-04-16T07:15:15.084Z,7.70
2023-04-16T07:17:47.366Z,6.80
2023-04-16T07:20:19.972Z,5.60
2023-04-16T07:22:52.413Z,5.90
2023-04-16T07:25:25.041Z,17.90
2023-04-16T07:27:57.295Z,12.40
2023-04-16T07:30:34.234Z,9.90
2023-04-16T07:33:07.059Z,8.50
2023-04-16T07:35:39.429Z,8.00
2023-04-16T07:38:11.777Z,10.90
2023-04-16T07:40:44.120Z,10.70
2023-04-16T07:43:16.726Z,9.70
2023-04-16T07:45:49.039Z,6.10
2023-04-16T07:48:21.599Z,6.70
2023-04-16T07:50:53.935Z,6.60
2023-04-16T07:53:26.201Z,6.80
2023-04-16T07:55:58.570Z,5.60
2023-04-16T07:58:30.931Z,6.00
2023-04-16T08:01:03.540Z,8.10
2023-04-16T08:03:35.993Z,13.30
2023-04-16T08:06:08.674Z,7.10
2023-04-16T08:08:40.935Z,8.90
2023-04-16T08:11:13.332Z,6.90
2023-04-16T08:13:45.695Z,9.70
2023-04-16T08:16:18.016Z,8.30
2023-04-16T08:18:50.438Z,10.80
2023-04-16T08:21:22.962Z,11.70
2023-04-16T08:23:55.288Z,7.50
2023-04-16T08:26:27.638Z,7.60
2023-04-16T08:28:59.917Z,8.60
2023-04-16T08:31:32.531Z,8.40
2023-04-16T08:34:04.916Z,8.80
2023-04-16T08:36:37.191Z,9.90
2023-04-16T08:39:10.176Z,14.80
2023-04-16T08:41:44.718Z,7.60
2023-04-16T08:44:25.957Z,8.20
2023-04-16T08:46:59.315Z,8.90
2023-04-16T08:49:37.253Z,7.10
2023-04-16T08:52:11.325Z,6.90
2023-04-16T08:54:56.546Z,8.00
2023-04-16T08:57:38.539Z,6.80
2023-04-16T09:00:14.696Z,7.30
2023-04-16T09:02:47.746Z,12.10
2023-04-16T09:05:21.836Z,10.50
2023-04-16T09:07:55.600Z,7.50
2023-04-16T09:10:28.608Z,8.00
2023-04-16T09:13:00.870Z,8.30
2023-04-16T09:15:34.999Z,8.40
2023-04-16T09:18:07.883Z,10.30
2023-04-16T09:20:40.464Z,9.80
2023-04-16T09:23:13.401Z,9.10
2023-04-16T09:25:45.715Z,10.10
2023-04-16T09:28:41.944Z,7.50
2023-04-16T09:31:16.603Z,14.20
2023-04-16T09:34:05.519Z,16.80
2023-04-16T09:36:38.200Z,15.90
2023-04-16T09:39:19.764Z,14.20
2023-04-16T09:41:54.850Z,22.00
2023-04-16T09:44:38.186Z,22.50
2023-04-16T09:47:11.283Z,14.40
2023-04-16T09:49:47.104Z,21.80
2023-04-16T09:52:21.699Z,20.50
2023-04-16T09:54:55.175Z,12.30
2023-04-16T09:57:27.844Z,8.10
2023-04-16T10:00:07.978Z,9.70
2023-04-16T10:02:43.057Z,7.80
2023-04-16T10:05:18.850Z,7.30
2023-04-16T10:07:51.166Z,8.10
2023-04-16T10:10:24.640Z,6.50
2023-04-16T10:12:58.116Z,5.00
2023-04-16T10:15:30.671Z,6.20
2023-04-16T10:18:03.520Z,11.60
2023-04-16T10:20:36.436Z,52.80
2023-04-16T10:23:09.244Z,21.30
2023-04-16T10:25:43.609Z,10.80
2023-04-16T10:28:17.316Z,10.40
2023-04-16T10:30:56.079Z,12.50
2023-04-16T10:33:29.744Z,10.70
2023-04-16T10:36:23.937Z,8.70
2023-04-16T10:39:00.548Z,14.70
2023-04-16T10:41:35.073Z,12.10
2023-04-16T10:44:11.690Z,11.00
2023-04-16T10:46:45.487Z,8.70
2023-04-16T10:49:20.132Z,8.80
2023-04-16T10:51:59.501Z,9.40
2023-04-16T10:54:34.336Z,9.90
2023-04-16T10:59:40.071Z,8.00
2023-04-16T11:02:16.662Z,6.50
2023-04-16T11:04:50.563Z,9.00
2023-04-16T11:07:35.379Z,8.90
2023-04-16T11:10:13.906Z,14.60
2023-04-16T11:12:48.480Z,8.40
2023-04-16T11:15:21.495Z,8.30
2023-04-16T11:17:54.384Z,8.30
2023-04-16T11:20:28.217Z,9.80
2023-04-16T11:23:00.909Z,14.50
2023-04-16T11:25:34.310Z,18.50
2023-04-16T11:28:06.725Z,13.30
2023-04-16T11:30:40.854Z,15.70
2023-04-16T11:33:13.789Z,9.20
2023-04-16T11:35:46.197Z,10.00
2023-04-16T11:38:21.010Z,10.70
2023-04-16T11:40:54.359Z,9.00
2023-04-16T11:43:27.800Z,9.80
2023-04-16T11:46:12.916Z,11.40
2023-04-16T11:48:53.328Z,8.30
2023-04-16T11:51:25.938Z,7.70
2023-04-16T11:53:58.822Z,7.40
2023-04-16T11:56:32.478Z,8.40
2023-04-16T11:59:15.790Z,8.20
2023-04-16T12:01:51.607Z,7.50
2023-04-16T12:04:26.311Z,8.00
2023-04-16T12:07:15.312Z,10.30
2023-04-16T12:09:47.644Z,8.40
2023-04-16T12:12:31.421Z,7.00
2023-04-16T12:15:05.210Z,6.70
2023-04-16T12:17:39.043Z,6.50
2023-04-16T12:20:16.347Z,6.60
2023-04-16T12:22:50.873Z,7.20
2023-04-16T12:25:25.721Z,7.90
2023-04-16T12:27:58.618Z,14.90
2023-04-16T12:30:31.481Z,9.90
2023-04-16T12:33:26.595Z,7.90
2023-04-16T12:35:58.928Z,9.00
2023-04-16T12:38:32.071Z,19.50
2023-04-16T12:41:06.631Z,10.80
2023-04-16T12:43:39.056Z,52.60
2023-04-16T12:46:11.444Z,28.00
2023-04-16T12:48:43.786Z,14.40
2023-04-16T12:51:16.196Z,14.20
2023-04-16T12:53:48.466Z,16.90
2023-04-16T12:56:21.240Z,11.00
2023-04-16T12:58:53.746Z,12.20
2023-04-16T13:01:26.313Z,17.10
2023-04-16T13:03:59.043Z,32.90
2023-04-16T13:06:31.571Z,47.90
2023-04-16T13:09:04.217Z,23.90
2023-04-16T13:11:36.841Z,23.10
2023-04-16T13:14:09.111Z,15.50
2023-04-16T13:16:41.435Z,24.00
2023-04-16T13:19:13.719Z,34.70
2023-04-16T13:21:46.534Z,43.00
2023-04-16T13:24:19.312Z,42.50
2023-04-16T13:26:52.183Z,32.60
2023-04-16T13:29:24.828Z,154.10
2023-04-16T13:31:57.490Z,269.90
2023-04-16T13:34:29.886Z,141.10
2023-04-16T13:37:02.264Z,131.10
2023-04-16T13:39:34.788Z,44.00
2023-04-16T13:42:07.391Z,39.30
2023-04-16T13:44:39.877Z,38.70
2023-04-16T13:47:12.531Z,36.30
2023-04-16T13:49:44.803Z,62.20
2023-04-16T13:52:17.216Z,22.10
2023-04-16T13:54:49.615Z,32.10
2023-04-16T13:57:24.724Z,31.60
2023-04-16T13:59:57.458Z,27.00
2023-04-16T14:02:29.995Z,21.60
2023-04-16T14:05:02.356Z,13.70
2023-04-16T14:07:34.792Z,11.30
2023-04-16T14:10:08.086Z,29.50
2023-04-16T14:12:40.834Z,26.10
2023-04-16T14:15:14.986Z,56.20
2023-04-16T14:17:47.798Z,47.30
2023-04-16T14:20:20.108Z,25.60
2023-04-16T14:22:52.453Z,12.60
2023-04-16T14:25:25.121Z,9.40
2023-04-16T14:27:57.455Z,11.50
2023-04-16T14:30:29.864Z,8.10
2023-04-16T14:33:02.244Z,10.60
2023-04-16T14:35:34.917Z,9.40
2023-04-16T14:38:07.388Z,16.30
2023-04-16T14:40:39.738Z,31.70
2023-04-16T14:43:12.039Z,14.90
2023-04-16T14:45:44.461Z,18.60
2023-04-16T14:48:16.702Z,14.30
2023-04-16T14:50:49.107Z,19.20
2023-04-16T14:53:21.572Z,16.80
2023-04-16T14:55:54.539Z,18.40
2023-04-16T14:58:27.052Z,22.50
2023-04-16T15:01:00.456Z,17.40
2023-04-16T15:03:34.250Z,18.30
2023-04-16T15:06:08.661Z,17.70
2023-04-16T15:08:41.668Z,15.00
2023-04-16T15:11:13.921Z,17.20
2023-04-16T15:13:46.306Z,13.30
2023-04-16T15:16:18.754Z,11.10
2023-04-16T15:18:51.584Z,11.40
2023-04-16T15:21:23.945Z,9.20
2023-04-16T15:23:56.797Z,9.70
2023-04-16T15:26:29.209Z,9.60
2023-04-16T15:29:01.741Z,9.60
2023-04-16T15:31:34.091Z,9.00
2023-04-16T15:34:06.503Z,8.30
2023-04-16T15:36:38.828Z,11.40
2023-04-16T15:39:11.367Z,10.40
2023-04-16T15:41:57.481Z,10.20
2023-04-16T15:44:32.841Z,10.60
2023-04-16T15:47:06.420Z,8.30
2023-04-16T15:49:38.830Z,8.30
2023-04-16T15:52:12.224Z,9.90
2023-04-16T15:54:44.722Z,9.70
2023-04-16T15:57:16.966Z,9.90
2023-04-16T16:00:05.298Z,22.60
2023-04-16T16:02:38.494Z,40.60
2023-04-16T16:05:13.008Z,28.10
2023-04-16T16:07:45.617Z,23.60
2023-04-16T16:10:17.956Z,19.80
2023-04-16T16:12:50.207Z,13.50
2023-04-16T16:15:22.547Z,11.50
2023-04-16T16:17:55.776Z,9.40
2023-04-16T16:20:28.699Z,33.40
2023-04-16T16:23:01.383Z,17.50
2023-04-16T16:25:33.730Z,14.80
2023-04-16T16:28:06.733Z,11.60
2023-04-16T16:30:39.209Z,13.20
2023-04-16T16:33:11.990Z,12.50
2023-04-16T16:35:44.274Z,10.10
2023-04-16T16:38:16.595Z,7.60
2023-04-16T16:40:48.960Z,10.30
2023-04-16T16:43:21.569Z,8.30
2023-04-16T16:45:53.854Z,7.20
2023-04-16T16:48:26.192Z,7.40
2023-04-16T16:50:58.472Z,9.20
2023-04-16T16:53:30.802Z,12.10
2023-04-16T16:56:03.054Z,11.90
2023-04-16T16:58:35.402Z,11.50
2023-04-16T17:01:07.862Z,15.50
2023-04-16T17:03:40.279Z,15.80
2023-04-16T17:06:12.731Z,15.50
2023-04-16T17:08:45.014Z,13.10
2023-04-16T17:11:18.012Z,11.40
2023-04-16T17:13:50.668Z,14.50
2023-04-16T17:16:24.064Z,14.90
2023-04-16T17:18:57.277Z,16.40
2023-04-16T17:21:29.677Z,13.30
2023-04-16T17:24:01.963Z,14.00
2023-04-16T17:26:34.227Z,14.80
2023-04-16T17:29:06.530Z,13.90
2023-04-16T17:31:38.956Z,14.30
2023-04-16T17:34:11.562Z,19.30
2023-04-16T17:36:44.063Z,20.60
2023-04-16T17:39:16.334Z,19.90
2023-04-16T17:41:54.235Z,21.10
2023-04-16T17:44:28.131Z,24.50
2023-04-16T17:47:00.484Z,23.60
2023-04-16T17:49:32.805Z,24.60
2023-04-16T17:52:05.091Z,18.30
2023-04-16T17:54:37.441Z,13.70
2023-04-16T17:57:09.843Z,14.20
2023-04-16T17:59:43.005Z,14.40
2023-04-16T18:02:15.675Z,13.40
2023-04-16T18:04:48.793Z,12.70
2023-04-16T18:07:21.446Z,13.60
2023-04-16T18:09:53.821Z,20.70
2023-04-16T18:12:26.158Z,20.50
2023-04-16T18:14:58.446Z,15.00
2023-04-16T18:17:30.783Z,25.50
2023-04-16T18:20:06.245Z,24.10
2023-04-16T18:22:38.518Z,20.40
2023-04-16T18:27:44.920Z,23.30
2023-04-16T18:30:25.179Z,49.50
2023-04-16T18:35:34.271Z,33.70
2023-04-16T18:38:06.669Z,43.40
2023-04-16T18:40:39.339Z,53.80
2023-04-16T18:43:11.789Z,75.10
2023-04-16T18:45:44.098Z,89.90
2023-04-16T18:48:16.599Z,63.60
2023-04-16T18:50:49.456Z,69.10
2023-04-16T18:53:21.795Z,44.40
2023-04-16T18:55:57.019Z,36.60
2023-04-16T18:58:29.651Z,25.60
2023-04-16T19:01:02.209Z,35.40
2023-04-16T19:03:34.827Z,27.40
2023-04-16T19:06:07.612Z,35.70
2023-04-16T19:08:40.041Z,22.60
2023-04-16T19:11:12.358Z,27.10
2023-04-16T19:13:44.870Z,22.00
2023-04-16T19:16:17.292Z,23.70
2023-04-16T19:18:49.500Z,15.40
2023-04-16T19:21:22.123Z,16.80
2023-04-16T19:23:54.474Z,24.80
2023-04-16T19:26:27.020Z,35.60
2023-04-16T19:28:59.365Z,27.40
2023-04-16T19:31:32.122Z,21.10
2023-04-16T19:34:04.415Z,28.80
2023-04-16T19:36:36.661Z,23.00
2023-04-16T19:39:09.182Z,14.40
2023-04-16T19:41:41.648Z,26.40
2023-04-16T19:44:13.968Z,20.50
2023-04-16T19:46:46.360Z,26.70
2023-04-16T19:49:18.708Z,28.70
2023-04-16T19:51:50.967Z,28.70
2023-04-16T19:54:23.394Z,29.80
2023-04-16T19:56:57.134Z,33.30
2023-04-16T19:59:29.938Z,34.50
2023-04-16T20:02:02.316Z,30.40
2023-04-16T20:04:35.149Z,18.90
2023-04-16T20:07:07.549Z,18.30
2023-04-16T20:09:39.949Z,22.40
2023-04-16T20:12:12.366Z,20.20
2023-04-16T20:14:45.029Z,22.80
2023-04-16T20:17:19.710Z,17.80
2023-04-16T20:19:52.233Z,16.30
2023-04-16T20:22:24.497Z,14.40
2023-04-16T20:24:56.859Z,23.20
2023-04-16T20:27:29.127Z,32.10
2023-04-16T20:30:01.709Z,52.20
2023-04-16T20:32:34.057Z,197.80
2023-04-16T20:35:11.351Z,331.00
2023-04-16T20:37:44.078Z,381.20
2023-04-16T20:40:16.965Z,233.20
2023-04-16T20:42:52.125Z,364.40
2023-04-16T20:45:25.429Z,486.00
2023-04-16T20:47:57.778Z,389.80
2023-04-16T20:50:30.399Z,417.10
2023-04-16T20:53:03.640Z,154.90
2023-04-16T20:55:36.045Z,60.40
2023-04-16T20:58:08.339Z,43.90
2023-04-16T21:00:40.809Z,76.80
2023-04-16T21:03:13.266Z,80.90
2023-04-16T21:05:52.203Z,70.40
2023-04-16T21:08:25.656Z,72.90
2023-04-16T21:10:58.040Z,35.80
2023-04-16T21:13:30.576Z,20.20
2023-04-16T21:16:05.026Z,18.30
2023-04-16T21:18:37.910Z,15.80
2023-04-16T21:21:10.203Z,11.60
2023-04-16T21:23:42.513Z,10.20
2023-04-16T21:26:14.948Z,10.30
2023-04-16T21:28:47.368Z,10.40
2023-04-16T21:31:20.101Z,9.60
2023-04-16T21:33:52.476Z,10.30
2023-04-16T21:36:26.718Z,12.00
2023-04-16T21:38:59.010Z,15.20
2023-04-16T21:41:31.612Z,13.00
2023-04-16T21:44:04.096Z,18.00
2023-04-16T21:46:36.418Z,16.00
2023-04-16T21:49:09.092Z,15.70
2023-04-16T21:51:43.216Z,13.40
2023-04-16T21:54:17.997Z,12.70
2023-04-16T21:56:50.415Z,9.70
2023-04-16T21:59:22.762Z,9.50
2023-04-16T22:01:55.338Z,7.70
2023-04-16T22:04:37.209Z,8.60
2023-04-16T22:07:10.435Z,8.00
2023-04-16T22:09:42.949Z,9.20
2023-04-16T22:12:15.602Z,8.30
2023-04-16T22:14:59.732Z,8.80
2023-04-16T22:17:36.005Z,7.90
2023-04-16T22:20:13.302Z,8.40
2023-04-16T22:22:46.639Z,8.20
2023-04-16T22:25:18.922Z,8.20
2023-04-16T22:27:51.272Z,8.70
2023-04-16T22:30:23.610Z,10.30
2023-04-16T22:32:56.165Z,9.80
2023-04-16T22:35:28.532Z,10.70
2023-04-16T22:38:01.150Z,10.10
2023-04-16T22:40:34.689Z,28.60
2023-04-16T22:43:07.204Z,14.10
2023-04-16T22:45:41.144Z,9.50
2023-04-16T22:48:13.351Z,9.30
2023-04-16T22:50:51.116Z,10.20
2023-04-16T22:53:23.478Z,12.20
2023-04-16T22:55:55.822Z,10.00
2023-04-16T22:58:28.209Z,8.20
2023-04-16T23:01:01.707Z,9.20
2023-04-16T23:03:34.270Z,9.30
2023-04-16T23:06:08.010Z,8.30
2023-04-16T23:08:40.868Z,9.70
2023-04-16T23:11:13.268Z,9.20
2023-04-16T23:13:46.512Z,9.30
2023-04-16T23:16:19.054Z,8.10
2023-04-16T23:18:51.426Z,8.10
2023-04-16T23:21:23.876Z,7.90
2023-04-16T23:23:57.273Z,8.30
2023-04-16T23:26:29.624Z,9.10
2023-04-16T23:29:02.056Z,8.70
2023-04-16T23:31:34.433Z,9.20
2023-04-16T23:34:06.772Z,11.90
2023-04-16T23:36:39.335Z,11.00
2023-04-16T23:39:11.868Z,9.40
2023-04-16T23:41:45.019Z,9.50
2023-04-16T23:44:17.628Z,8.90
2023-04-16T23:46:50.070Z,8.80
2023-04-16T23:49:22.286Z,7.90
2023-04-16T23:51:54.672Z,7.70
2023-04-16T23:54:27.108Z,8.90
2023-04-16T23:56:59.355Z,9.70
2023-04-16T23:59:31.694Z,8.40
